sensor_id;sensor_type;location;lat;lon;timestamp;pressure;altitude;pressure_sealevel;temperature;humidity
9893;BME280;4985;49.092;8.542;2022-08-19T00:01:56;98878.22;;;23.98;51.51
9893;BME280;4985;49.092;8.542;2022-08-19T00:04:25;98884.69;;;23.97;51.50
9893;BME280;4985;49.092;8.542;2022-08-19T00:06:52;98881.16;;;23.91;51.63
9893;BME280;4985;49.092;8.542;2022-08-19T00:09:20;98877.91;;;23.89;51.65
9893;BME280;4985;49.092;8.542;2022-08-19T00:11:47;98884.62;;;23.87;51.76
9893;BME280;4985;49.092;8.542;2022-08-19T00:14:15;98891.06;;;23.86;51.81
9893;BME280;4985;49.092;8.542;2022-08-19T00:16:46;98895.63;;;23.85;51.80
9893;BME280;4985;49.092;8.542;2022-08-19T00:19:13;98896.97;;;23.83;51.95
9893;BME280;4985;49.092;8.542;2022-08-19T00:21:40;98899.38;;;23.79;52.08
9893;BME280;4985;49.092;8.542;2022-08-19T00:24:07;98903.09;;;23.78;52.12
9893;BME280;4985;49.092;8.542;2022-08-19T00:26:34;98905.84;;;23.83;52.06
9893;BME280;4985;49.092;8.542;2022-08-19T00:29:02;98888.34;;;23.80;52.21
9893;BME280;4985;49.092;8.542;2022-08-19T00:31:29;98894.28;;;23.83;52.18
9893;BME280;4985;49.092;8.542;2022-08-19T00:33:57;98898.03;;;23.81;52.19
9893;BME280;4985;49.092;8.542;2022-08-19T00:36:24;98905.28;;;23.81;52.23
9893;BME280;4985;49.092;8.542;2022-08-19T00:38:51;98897.50;;;23.79;52.32
9893;BME280;4985;49.092;8.542;2022-08-19T00:41:20;98909.53;;;23.77;52.38
9893;BME280;4985;49.092;8.542;2022-08-19T00:43:57;98904.97;;;23.77;52.42
9893;BME280;4985;49.092;8.542;2022-08-19T00:46:24;98893.47;;;23.82;52.25
9893;BME280;4985;49.092;8.542;2022-08-19T00:48:51;98888.91;;;23.83;52.18
9893;BME280;4985;49.092;8.542;2022-08-19T00:51:19;98884.28;;;23.78;52.27
9893;BME280;4985;49.092;8.542;2022-08-19T00:53:47;98859.59;;;23.81;52.07
9893;BME280;4985;49.092;8.542;2022-08-19T00:56:14;98857.72;;;23.81;52.06
9893;BME280;4985;49.092;8.542;2022-08-19T00:58:41;98854.22;;;23.81;52.03
9893;BME280;4985;49.092;8.542;2022-08-19T01:01:07;98857.94;;;23.75;52.22
9893;BME280;4985;49.092;8.542;2022-08-19T01:03:34;98871.09;;;23.71;52.32
9893;BME280;4985;49.092;8.542;2022-08-19T01:06:01;98861.94;;;23.72;52.23
9893;BME280;4985;49.092;8.542;2022-08-19T01:08:29;98868.41;;;23.71;52.29
9893;BME280;4985;49.092;8.542;2022-08-19T01:10:58;98864.66;;;23.77;52.04
9893;BME280;4985;49.092;8.542;2022-08-19T01:13:28;98882.94;;;23.75;52.08
9893;BME280;4985;49.092;8.542;2022-08-19T01:16:01;98889.09;;;23.71;52.21
9893;BME280;4985;49.092;8.542;2022-08-19T01:18:29;98891.50;;;23.72;52.20
9893;BME280;4985;49.092;8.542;2022-08-19T01:21:00;98892.84;;;23.70;52.15
9893;BME280;4985;49.092;8.542;2022-08-19T01:23:30;98881.03;;;23.71;52.10
9893;BME280;4985;49.092;8.542;2022-08-19T01:26:09;98880.75;;;23.67;52.19
9893;BME280;4985;49.092;8.542;2022-08-19T01:28:37;98872.69;;;23.67;52.19
9893;BME280;4985;49.092;8.542;2022-08-19T01:31:06;98878.59;;;23.69;52.15
9893;BME280;4985;49.092;8.542;2022-08-19T01:33:33;98877.28;;;23.72;52.05
9893;BME280;4985;49.092;8.542;2022-08-19T01:36:09;98875.91;;;23.69;52.17
9893;BME280;4985;49.092;8.542;2022-08-19T01:38:40;98878.06;;;23.67;52.22
9893;BME280;4985;49.092;8.542;2022-08-19T01:41:08;98885.34;;;23.72;52.15
9893;BME280;4985;49.092;8.542;2022-08-19T01:43:35;98877.53;;;23.70;52.07
9893;BME280;4985;49.092;8.542;2022-08-19T01:46:02;98876.41;;;23.66;52.31
9893;BME280;4985;49.092;8.542;2022-08-19T01:48:33;98871.63;;;23.68;52.22
9893;BME280;4985;49.092;8.542;2022-08-19T01:50:59;98865.16;;;23.69;52.26
9893;BME280;4985;49.092;8.542;2022-08-19T01:53:26;98863.75;;;23.62;52.49
9893;BME280;4985;49.092;8.542;2022-08-19T01:55:54;98874.78;;;23.60;52.53
9893;BME280;4985;49.092;8.542;2022-08-19T01:58:24;98877.47;;;23.60;52.57
9893;BME280;4985;49.092;8.542;2022-08-19T02:00:53;98890.50;;;23.51;52.81
9893;BME280;4985;49.092;8.542;2022-08-19T02:03:19;98886.75;;;23.52;52.73
9893;BME280;4985;49.092;8.542;2022-08-19T02:05:46;98877.59;;;23.48;52.80
9893;BME280;4985;49.092;8.542;2022-08-19T02:08:15;98868.22;;;23.51;52.77
9893;BME280;4985;49.092;8.542;2022-08-19T02:10:43;98860.69;;;23.53;52.73
9893;BME280;4985;49.092;8.542;2022-08-19T02:13:12;98867.69;;;23.54;52.80
9893;BME280;4985;49.092;8.542;2022-08-19T02:15:40;98878.97;;;23.51;52.87
9893;BME280;4985;49.092;8.542;2022-08-19T02:18:07;98877.34;;;23.50;52.88
9893;BME280;4985;49.092;8.542;2022-08-19T02:20:34;98888.63;;;23.47;52.95
9893;BME280;4985;49.092;8.542;2022-08-19T02:23:01;98897.22;;;23.49;52.84
9893;BME280;4985;49.092;8.542;2022-08-19T02:25:28;98885.88;;;23.42;53.03
9893;BME280;4985;49.092;8.542;2022-08-19T02:27:55;98890.16;;;23.43;53.08
9893;BME280;4985;49.092;8.542;2022-08-19T02:30:23;98892.31;;;23.41;53.10
9893;BME280;4985;49.092;8.542;2022-08-19T02:32:51;98886.69;;;23.42;53.08
9893;BME280;4985;49.092;8.542;2022-08-19T02:35:18;98887.75;;;23.41;53.10
9893;BME280;4985;49.092;8.542;2022-08-19T02:37:45;98892.31;;;23.41;53.06
9893;BME280;4985;49.092;8.542;2022-08-19T02:40:29;98888.81;;;23.40;53.17
9893;BME280;4985;49.092;8.542;2022-08-19T02:42:59;98879.91;;;23.35;53.29
9893;BME280;4985;49.092;8.542;2022-08-19T02:45:30;98882.09;;;23.38;53.23
9893;BME280;4985;49.092;8.542;2022-08-19T02:47:57;98874.50;;;23.30;53.39
9893;BME280;4985;49.092;8.542;2022-08-19T02:50:24;98874.81;;;23.33;53.24
9893;BME280;4985;49.092;8.542;2022-08-19T02:52:51;98872.94;;;23.34;53.27
9893;BME280;4985;49.092;8.542;2022-08-19T02:55:17;98870.97;;;23.24;53.52
9893;BME280;4985;49.092;8.542;2022-08-19T02:57:46;98858.13;;;23.31;53.33
9893;BME280;4985;49.092;8.542;2022-08-19T03:00:13;98868.03;;;23.31;53.38
9893;BME280;4985;49.092;8.542;2022-08-19T03:02:42;98861.06;;;23.30;53.43
9893;BME280;4985;49.092;8.542;2022-08-19T03:05:09;98870.19;;;23.29;53.44
9893;BME280;4985;49.092;8.542;2022-08-19T03:07:36;98866.41;;;23.24;53.45
9893;BME280;4985;49.092;8.542;2022-08-19T03:10:04;98859.44;;;23.29;53.51
9893;BME280;4985;49.092;8.542;2022-08-19T03:12:31;98866.69;;;23.28;53.54
9893;BME280;4985;49.092;8.542;2022-08-19T03:15:00;98881.75;;;23.29;53.41
9893;BME280;4985;49.092;8.542;2022-08-19T03:17:27;98874.13;;;23.21;53.70
9893;BME280;4985;49.092;8.542;2022-08-19T03:19:55;98883.78;;;23.17;53.81
9893;BME280;4985;49.092;8.542;2022-08-19T03:22:22;98877.09;;;23.19;53.73
9893;BME280;4985;49.092;8.542;2022-08-19T03:24:48;98879.78;;;23.19;53.81
9893;BME280;4985;49.092;8.542;2022-08-19T03:27:15;98879.78;;;23.19;53.82
9893;BME280;4985;49.092;8.542;2022-08-19T03:29:43;98875.47;;;23.18;53.85
9893;BME280;4985;49.092;8.542;2022-08-19T03:32:10;98878.69;;;23.20;53.82
9893;BME280;4985;49.092;8.542;2022-08-19T03:34:38;98872.53;;;23.20;53.73
9893;BME280;4985;49.092;8.542;2022-08-19T03:37:07;98872.03;;;23.23;53.69
9893;BME280;4985;49.092;8.542;2022-08-19T03:39:37;98880.84;;;23.18;53.80
9893;BME280;4985;49.092;8.542;2022-08-19T03:42:04;98886.22;;;23.18;53.84
9893;BME280;4985;49.092;8.542;2022-08-19T03:44:31;98870.63;;;23.15;53.88
9893;BME280;4985;49.092;8.542;2022-08-19T03:46:59;98879.78;;;23.19;53.87
9893;BME280;4985;49.092;8.542;2022-08-19T03:49:29;98879.72;;;23.14;53.90
9893;BME280;4985;49.092;8.542;2022-08-19T03:51:57;98880.25;;;23.11;54.04
9893;BME280;4985;49.092;8.542;2022-08-19T03:54:27;98888.75;;;23.03;54.26
9893;BME280;4985;49.092;8.542;2022-08-19T03:56:55;98890.88;;;23.01;54.38
9893;BME280;4985;49.092;8.542;2022-08-19T03:59:25;98889.00;;;23.02;54.40
9893;BME280;4985;49.092;8.542;2022-08-19T04:01:53;98878.81;;;23.04;54.38
9893;BME280;4985;49.092;8.542;2022-08-19T04:04:20;98872.69;;;23.08;54.30
9893;BME280;4985;49.092;8.542;2022-08-19T04:06:47;98877.75;;;23.05;54.35
9893;BME280;4985;49.092;8.542;2022-08-19T04:09:14;98883.38;;;23.03;54.48
9893;BME280;4985;49.092;8.542;2022-08-19T04:11:44;98883.56;;;22.97;54.62
9893;BME280;4985;49.092;8.542;2022-08-19T04:14:14;98890.09;;;23.01;54.46
9893;BME280;4985;49.092;8.542;2022-08-19T04:16:41;98894.03;;;22.93;54.61
9893;BME280;4985;49.092;8.542;2022-08-19T04:19:09;98896.66;;;22.88;54.75
9893;BME280;4985;49.092;8.542;2022-08-19T04:21:35;98909.19;;;22.82;54.96
9893;BME280;4985;49.092;8.542;2022-08-19T04:24:03;98906.25;;;22.84;54.90
9893;BME280;4985;49.092;8.542;2022-08-19T04:26:31;98900.31;;;22.82;54.94
9893;BME280;4985;49.092;8.542;2022-08-19T04:29:03;98900.38;;;22.87;54.91
9893;BME280;4985;49.092;8.542;2022-08-19T04:31:31;98897.16;;;22.85;54.89
9893;BME280;4985;49.092;8.542;2022-08-19T04:34:02;98894.94;;;22.82;55.07
9893;BME280;4985;49.092;8.542;2022-08-19T04:36:31;98893.72;;;22.89;54.93
9893;BME280;4985;49.092;8.542;2022-08-19T04:39:00;98900.91;;;22.84;54.97
9893;BME280;4985;49.092;8.542;2022-08-19T04:41:28;98908.69;;;22.85;55.00
9893;BME280;4985;49.092;8.542;2022-08-19T04:44:14;98911.63;;;22.84;55.05
9893;BME280;4985;49.092;8.542;2022-08-19T04:46:43;98910.13;;;22.93;54.91
9893;BME280;4985;49.092;8.542;2022-08-19T04:49:10;98907.41;;;22.88;54.97
9893;BME280;4985;49.092;8.542;2022-08-19T04:51:40;98903.00;;;22.82;55.19
9893;BME280;4985;49.092;8.542;2022-08-19T04:54:07;98903.31;;;22.85;55.14
9893;BME280;4985;49.092;8.542;2022-08-19T04:56:34;98895.81;;;22.87;55.22
9893;BME280;4985;49.092;8.542;2022-08-19T04:59:01;98893.41;;;22.86;55.33
9893;BME280;4985;49.092;8.542;2022-08-19T05:01:32;98904.75;;;22.93;55.27
9893;BME280;4985;49.092;8.542;2022-08-19T05:04:02;98910.13;;;22.93;55.36
9893;BME280;4985;49.092;8.542;2022-08-19T05:06:31;98907.69;;;22.91;55.38
9893;BME280;4985;49.092;8.542;2022-08-19T05:08:59;98915.19;;;22.89;55.51
9893;BME280;4985;49.092;8.542;2022-08-19T05:11:28;98904.50;;;22.94;55.31
9893;BME280;4985;49.092;8.542;2022-08-19T05:13:55;98904.75;;;22.93;55.23
9893;BME280;4985;49.092;8.542;2022-08-19T05:16:23;98899.91;;;22.90;55.35
9893;BME280;4985;49.092;8.542;2022-08-19T05:18:52;98905.28;;;22.90;55.25
9893;BME280;4985;49.092;8.542;2022-08-19T05:21:38;98910.63;;;22.90;55.20
9893;BME280;4985;49.092;8.542;2022-08-19T05:24:23;98916.00;;;22.90;55.20
9893;BME280;4985;49.092;8.542;2022-08-19T05:26:51;98916.00;;;22.90;55.19
9893;BME280;4985;49.092;8.542;2022-08-19T05:29:22;98924.53;;;22.87;55.26
9893;BME280;4985;49.092;8.542;2022-08-19T05:31:50;98930.97;;;22.86;55.27
9893;BME280;4985;49.092;8.542;2022-08-19T05:34:19;98930.16;;;22.85;55.22
9893;BME280;4985;49.092;8.542;2022-08-19T05:36:48;98940.09;;;22.85;55.28
9893;BME280;4985;49.092;8.542;2022-08-19T05:39:18;98947.06;;;22.86;55.21
9893;BME280;4985;49.092;8.542;2022-08-19T05:41:47;98960.50;;;22.86;55.30
9893;BME280;4985;49.092;8.542;2022-08-19T05:44:15;98968.06;;;22.89;55.07
9893;BME280;4985;49.092;8.542;2022-08-19T05:46:43;98967.47;;;22.87;55.28
9893;BME280;4985;49.092;8.542;2022-08-19T05:49:13;98964.25;;;22.85;55.40
9893;BME280;4985;49.092;8.542;2022-08-19T05:51:42;98970.41;;;22.85;55.45
9893;BME280;4985;49.092;8.542;2022-08-19T05:54:09;98979.53;;;22.84;55.52
9893;BME280;4985;49.092;8.542;2022-08-19T05:56:39;98983.03;;;22.85;55.71
9893;BME280;4985;49.092;8.542;2022-08-19T05:59:06;98982.22;;;22.84;55.91
9893;BME280;4985;49.092;8.542;2022-08-19T06:01:35;98985.72;;;22.85;55.98
9893;BME280;4985;49.092;8.542;2022-08-19T06:04:03;98990.50;;;22.83;56.34
9893;BME280;4985;49.092;8.542;2022-08-19T06:06:30;98994.56;;;22.85;56.39
9893;BME280;4985;49.092;8.542;2022-08-19T06:09:00;98994.31;;;22.87;56.31
9893;BME280;4985;49.092;8.542;2022-08-19T06:11:32;98986.53;;;22.85;56.50
9893;BME280;4985;49.092;8.542;2022-08-19T06:14:01;98996.53;;;22.90;56.24
9893;BME280;4985;49.092;8.542;2022-08-19T06:16:28;98992.44;;;22.87;56.47
9893;BME280;4985;49.092;8.542;2022-08-19T06:19:00;98989.53;;;22.89;56.44
9893;BME280;4985;49.092;8.542;2022-08-19T06:21:28;98991.16;;;22.90;56.45
9893;BME280;4985;49.092;8.542;2022-08-19T06:23:56;98992.22;;;22.89;56.35
9893;BME280;4985;49.092;8.542;2022-08-19T06:26:25;98988.47;;;22.90;56.38
9893;BME280;4985;49.092;8.542;2022-08-19T06:28:53;98986.03;;;22.88;56.33
9893;BME280;4985;49.092;8.542;2022-08-19T06:31:23;98989.53;;;22.89;56.23
9893;BME280;4985;49.092;8.542;2022-08-19T06:33:50;98982.53;;;22.88;56.11
9893;BME280;4985;49.092;8.542;2022-08-19T06:36:20;98984.47;;;22.92;55.96
9893;BME280;4985;49.092;8.542;2022-08-19T06:38:47;98995.72;;;22.89;56.02
9893;BME280;4985;49.092;8.542;2022-08-19T06:41:14;98991.97;;;22.90;55.86
9893;BME280;4985;49.092;8.542;2022-08-19T06:43:42;98992.78;;;22.91;55.66
9893;BME280;4985;49.092;8.542;2022-08-19T06:46:10;98995.19;;;22.92;55.61
9893;BME280;4985;49.092;8.542;2022-08-19T06:48:38;98985.53;;;22.91;55.54
9893;BME280;4985;49.092;8.542;2022-08-19T06:51:05;98994.66;;;22.90;55.57
9893;BME280;4985;49.092;8.542;2022-08-19T06:53:32;98992.78;;;22.91;55.47
9893;BME280;4985;49.092;8.542;2022-08-19T06:55:59;98982.28;;;22.89;55.53
9893;BME280;4985;49.092;8.542;2022-08-19T06:58:28;98980.66;;;22.88;55.37
9893;BME280;4985;49.092;8.542;2022-08-19T07:00:59;98986.53;;;22.85;55.44
9893;BME280;4985;49.092;8.542;2022-08-19T07:03:29;98987.06;;;22.87;55.30
9893;BME280;4985;49.092;8.542;2022-08-19T07:05:56;98985.28;;;22.93;55.12
9893;BME280;4985;49.092;8.542;2022-08-19T07:08:24;98994.41;;;22.92;54.97
9893;BME280;4985;49.092;8.542;2022-08-19T07:10:52;98999.81;;;22.97;54.96
9893;BME280;4985;49.092;8.542;2022-08-19T07:13:21;98996.31;;;22.97;54.91
9893;BME280;4985;49.092;8.542;2022-08-19T07:15:48;98990.66;;;22.93;54.91
9893;BME280;4985;49.092;8.542;2022-08-19T07:18:17;99000.41;;;22.99;54.93
9893;BME280;4985;49.092;8.542;2022-08-19T07:20:45;98994.78;;;23.01;54.79
9893;BME280;4985;49.092;8.542;2022-08-19T07:23:12;98991.56;;;23.04;54.69
9893;BME280;4985;49.092;8.542;2022-08-19T07:25:39;99000.13;;;23.01;54.69
9893;BME280;4985;49.092;8.542;2022-08-19T07:28:06;98996.69;;;23.05;54.76
9893;BME280;4985;49.092;8.542;2022-08-19T07:30:37;99008.50;;;23.04;54.70
9893;BME280;4985;49.092;8.542;2022-08-19T07:33:03;99001.00;;;23.06;54.66
9893;BME280;4985;49.092;8.542;2022-08-19T07:35:32;99003.13;;;23.04;54.64
9893;BME280;4985;49.092;8.542;2022-08-19T07:37:59;99001.81;;;23.07;54.54
9893;BME280;4985;49.092;8.542;2022-08-19T07:40:27;99000.47;;;23.09;54.38
9893;BME280;4985;49.092;8.542;2022-08-19T07:42:54;98999.19;;;23.12;54.36
9893;BME280;4985;49.092;8.542;2022-08-19T07:45:21;98999.41;;;23.10;54.39
9893;BME280;4985;49.092;8.542;2022-08-19T07:47:47;98998.94;;;23.13;54.28
9893;BME280;4985;49.092;8.542;2022-08-19T07:50:14;99003.78;;;23.16;54.46
9893;BME280;4985;49.092;8.542;2022-08-19T07:52:42;99008.59;;;23.14;54.41
9893;BME280;4985;49.092;8.542;2022-08-19T07:55:10;99008.91;;;23.18;54.29
9893;BME280;4985;49.092;8.542;2022-08-19T07:57:36;99016.72;;;23.19;54.15
9893;BME280;4985;49.092;8.542;2022-08-19T08:00:05;99009.47;;;23.20;54.12
9893;BME280;4985;49.092;8.542;2022-08-19T08:02:32;99011.88;;;23.21;54.02
9893;BME280;4985;49.092;8.542;2022-08-19T08:04:59;99010.84;;;23.22;54.04
9893;BME280;4985;49.092;8.542;2022-08-19T08:07:44;99013.28;;;23.24;54.16
9893;BME280;4985;49.092;8.542;2022-08-19T08:10:28;99012.47;;;23.23;54.21
9893;BME280;4985;49.092;8.542;2022-08-19T08:12:55;99014.91;;;23.25;54.27
9893;BME280;4985;49.092;8.542;2022-08-19T08:15:21;99020.56;;;23.29;54.20
9893;BME280;4985;49.092;8.542;2022-08-19T08:17:48;99016.28;;;23.28;54.15
9893;BME280;4985;49.092;8.542;2022-08-19T08:20:16;99006.88;;;23.30;54.10
9893;BME280;4985;49.092;8.542;2022-08-19T08:22:46;99006.62;;;23.32;53.96
9893;BME280;4985;49.092;8.542;2022-08-19T08:25:30;99002.66;;;23.34;53.97
9893;BME280;4985;49.092;8.542;2022-08-19T08:27:57;99014.75;;;23.37;53.81
9893;BME280;4985;49.092;8.542;2022-08-19T08:30:27;99024.44;;;23.38;53.64
9893;BME280;4985;49.092;8.542;2022-08-19T08:32:54;99015.31;;;23.39;53.59
9893;BME280;4985;49.092;8.542;2022-08-19T08:35:23;99018.56;;;23.41;53.43
9893;BME280;4985;49.092;8.542;2022-08-19T08:37:53;99024.75;;;23.41;53.38
9893;BME280;4985;49.092;8.542;2022-08-19T08:40:23;99022.31;;;23.40;53.43
9893;BME280;4985;49.092;8.542;2022-08-19T08:42:57;99025.06;;;23.45;53.43
9893;BME280;4985;49.092;8.542;2022-08-19T08:45:26;99026.69;;;23.46;53.36
9893;BME280;4985;49.092;8.542;2022-08-19T08:47:57;99025.06;;;23.45;53.27
9893;BME280;4985;49.092;8.542;2022-08-19T08:50:29;99033.41;;;23.48;53.32
9893;BME280;4985;49.092;8.542;2022-08-19T08:53:04;99024.28;;;23.49;53.42
9893;BME280;4985;49.092;8.542;2022-08-19T08:55:32;99021.59;;;23.49;53.34
9893;BME280;4985;49.092;8.542;2022-08-19T08:58:01;99024.53;;;23.48;53.53
9893;BME280;4985;49.092;8.542;2022-08-19T09:00:31;99024.59;;;23.53;53.46
9893;BME280;4985;49.092;8.542;2022-08-19T09:02:59;99032.63;;;23.53;53.41
9893;BME280;4985;49.092;8.542;2022-08-19T09:05:33;99033.19;;;23.55;53.54
9893;BME280;4985;49.092;8.542;2022-08-19T09:08:08;99031.31;;;23.56;53.61
9893;BME280;4985;49.092;8.542;2022-08-19T09:10:43;99025.72;;;23.57;53.24
9893;BME280;4985;49.092;8.542;2022-08-19T09:13:16;99025.22;;;23.60;53.24
9893;BME280;4985;49.092;8.542;2022-08-19T09:15:51;99028.72;;;23.61;53.44
9893;BME280;4985;49.092;8.542;2022-08-19T09:18:19;99039.22;;;23.62;53.17
9893;BME280;4985;49.092;8.542;2022-08-19T09:20:46;99023.66;;;23.64;53.14
9893;BME280;4985;49.092;8.542;2022-08-19T09:23:15;99026.34;;;23.64;53.24
9893;BME280;4985;49.092;8.542;2022-08-19T09:25:42;99023.66;;;23.64;52.98
9893;BME280;4985;49.092;8.542;2022-08-19T09:28:10;99015.31;;;23.66;53.14
9893;BME280;4985;49.092;8.542;2022-08-19T09:30:40;99012.41;;;23.67;53.21
9893;BME280;4985;49.092;8.542;2022-08-19T09:33:08;99017.78;;;23.67;53.23
9893;BME280;4985;49.092;8.542;2022-08-19T09:35:35;99015.66;;;23.69;53.20
9893;BME280;4985;49.092;8.542;2022-08-19T09:38:02;99008.06;;;23.66;53.12
9893;BME280;4985;49.092;8.542;2022-08-19T09:40:30;99014.59;;;23.70;53.11
9893;BME280;4985;49.092;8.542;2022-08-19T09:42:57;99017.00;;;23.72;53.06
9893;BME280;4985;49.092;8.542;2022-08-19T09:45:28;99022.12;;;23.73;52.91
9893;BME280;4985;49.092;8.542;2022-08-19T09:47:56;99020.78;;;23.76;52.82
9893;BME280;4985;49.092;8.542;2022-08-19T09:50:23;99009.78;;;23.77;52.78
9893;BME280;4985;49.092;8.542;2022-08-19T09:52:50;99014.12;;;23.78;52.72
9893;BME280;4985;49.092;8.542;2022-08-19T09:55:17;99016.81;;;23.78;52.72
9893;BME280;4985;49.092;8.542;2022-08-19T09:57:45;99019.25;;;23.80;52.62
9893;BME280;4985;49.092;8.542;2022-08-19T10:00:12;99027.31;;;23.80;52.64
9893;BME280;4985;49.092;8.542;2022-08-19T10:02:39;99023.53;;;23.81;52.56
9893;BME280;4985;49.092;8.542;2022-08-19T10:05:06;99033.22;;;23.82;52.48
9893;BME280;4985;49.092;8.542;2022-08-19T10:07:51;99023.28;;;23.83;52.40
9893;BME280;4985;49.092;8.542;2022-08-19T10:10:17;99025.97;;;23.83;52.35
9893;BME280;4985;49.092;8.542;2022-08-19T10:12:45;99034.59;;;23.85;52.28
9893;BME280;4985;49.092;8.542;2022-08-19T10:15:12;99019.28;;;23.85;52.20
9893;BME280;4985;49.092;8.542;2022-08-19T10:17:39;99020.09;;;23.86;52.13
9893;BME280;4985;49.092;8.542;2022-08-19T10:20:07;99015.25;;;23.88;52.14
9893;BME280;4985;49.092;8.542;2022-08-19T10:22:33;99017.94;;;23.88;52.10
9893;BME280;4985;49.092;8.542;2022-08-19T10:25:03;99016.06;;;23.88;52.10
9893;BME280;4985;49.092;8.542;2022-08-19T10:27:30;99010.44;;;23.90;52.05
9893;BME280;4985;49.092;8.542;2022-08-19T10:29:58;99001.31;;;23.91;51.96
9893;BME280;4985;49.092;8.542;2022-08-19T10:32:25;99005.88;;;23.90;51.93
9893;BME280;4985;49.092;8.542;2022-08-19T10:34:52;99009.38;;;23.91;51.94
9893;BME280;4985;49.092;8.542;2022-08-19T10:37:19;99000.25;;;23.92;51.84
9893;BME280;4985;49.092;8.542;2022-08-19T10:39:46;99008.31;;;23.92;51.70
9893;BME280;4985;49.092;8.542;2022-08-19T10:42:14;99007.25;;;23.93;51.65
9893;BME280;4985;49.092;8.542;2022-08-19T10:44:42;99008.59;;;23.95;51.57
9893;BME280;4985;49.092;8.542;2022-08-19T10:47:10;99002.97;;;23.97;51.52
9893;BME280;4985;49.092;8.542;2022-08-19T10:49:37;99004.59;;;23.98;51.48
9893;BME280;4985;49.092;8.542;2022-08-19T10:52:24;99000.81;;;23.99;51.35
9893;BME280;4985;49.092;8.542;2022-08-19T10:54:59;99001.38;;;24.01;51.20
9893;BME280;4985;49.092;8.542;2022-08-19T10:57:43;99000.06;;;24.03;51.24
9893;BME280;4985;49.092;8.542;2022-08-19T11:00:11;98983.12;;;24.03;51.28
9893;BME280;4985;49.092;8.542;2022-08-19T11:02:40;98981.50;;;24.02;51.18
9893;BME280;4985;49.092;8.542;2022-08-19T11:05:08;98981.25;;;24.03;50.88
9893;BME280;4985;49.092;8.542;2022-08-19T11:07:36;98984.47;;;24.05;50.39
9893;BME280;4985;49.092;8.542;2022-08-19T11:10:03;98977.50;;;24.04;50.29
9893;BME280;4985;49.092;8.542;2022-08-19T11:12:30;98968.09;;;24.07;50.35
9893;BME280;4985;49.092;8.542;2022-08-19T11:14:58;98955.72;;;24.06;50.39
9893;BME280;4985;49.092;8.542;2022-08-19T11:17:24;98954.66;;;24.07;50.29
9893;BME280;4985;49.092;8.542;2022-08-19T11:19:52;98953.56;;;24.08;50.22
9893;BME280;4985;49.092;8.542;2022-08-19T11:22:19;98958.69;;;24.09;50.43
9893;BME280;4985;49.092;8.542;2022-08-19T11:24:45;98957.34;;;24.12;50.48
9893;BME280;4985;49.092;8.542;2022-08-19T11:27:12;98955.50;;;24.13;50.30
9893;BME280;4985;49.092;8.542;2022-08-19T11:29:39;98955.50;;;24.13;50.29
9893;BME280;4985;49.092;8.542;2022-08-19T11:32:08;98954.66;;;24.12;50.00
9893;BME280;4985;49.092;8.542;2022-08-19T11:34:35;98960.62;;;24.14;49.96
9893;BME280;4985;49.092;8.542;2022-08-19T11:37:04;98961.44;;;24.15;50.02
9893;BME280;4985;49.092;8.542;2022-08-19T11:39:32;98959.53;;;24.15;49.83
9893;BME280;4985;49.092;8.542;2022-08-19T11:42:01;98968.69;;;24.14;49.73
9893;BME280;4985;49.092;8.542;2022-08-19T11:44:28;98972.72;;;24.17;49.70
9893;BME280;4985;49.092;8.542;2022-08-19T11:46:55;98966.03;;;24.19;49.86
9893;BME280;4985;49.092;8.542;2022-08-19T11:49:22;98963.31;;;24.19;49.75
9893;BME280;4985;49.092;8.542;2022-08-19T11:51:49;98958.50;;;24.21;49.90
9893;BME280;4985;49.092;8.542;2022-08-19T11:54:17;98967.09;;;24.23;49.82
9893;BME280;4985;49.092;8.542;2022-08-19T11:56:44;98971.19;;;24.26;49.73
9893;BME280;4985;49.092;8.542;2022-08-19T11:59:13;98983.56;;;24.27;49.69
9893;BME280;4985;49.092;8.542;2022-08-19T12:01:39;98976.28;;;24.27;49.76
9893;BME280;4985;49.092;8.542;2022-08-19T12:04:07;98980.59;;;24.28;49.68
9893;BME280;4985;49.092;8.542;2022-08-19T12:06:38;98976.84;;;24.29;49.63
9893;BME280;4985;49.092;8.542;2022-08-19T12:09:06;98982.22;;;24.29;49.42
9893;BME280;4985;49.092;8.542;2022-08-19T12:11:35;98983.88;;;24.30;49.26
9893;BME280;4985;49.092;8.542;2022-08-19T12:14:03;98977.38;;;24.26;49.13
9893;BME280;4985;49.092;8.542;2022-08-19T12:16:30;98981.72;;;24.32;48.99
9893;BME280;4985;49.092;8.542;2022-08-19T12:18:58;98972.03;;;24.31;49.31
9893;BME280;4985;49.092;8.542;2022-08-19T12:21:29;98964.25;;;24.35;49.38
9893;BME280;4985;49.092;8.542;2022-08-19T12:23:57;98976.38;;;24.37;49.09
9893;BME280;4985;49.092;8.542;2022-08-19T12:26:25;98956.50;;;24.38;49.24
9893;BME280;4985;49.092;8.542;2022-08-19T12:28:54;98973.97;;;24.41;49.17
9893;BME280;4985;49.092;8.542;2022-08-19T12:31:21;98969.41;;;24.42;49.09
9893;BME280;4985;49.092;8.542;2022-08-19T12:33:48;98967.53;;;24.42;49.23
9893;BME280;4985;49.092;8.542;2022-08-19T12:36:16;98956.75;;;24.42;48.84
9893;BME280;4985;49.092;8.542;2022-08-19T12:38:43;98961.06;;;24.43;48.47
9893;BME280;4985;49.092;8.542;2022-08-19T12:41:12;98956.50;;;24.44;48.65
9893;BME280;4985;49.092;8.542;2022-08-19T12:43:39;98958.91;;;24.45;48.82
9893;BME280;4985;49.092;8.542;2022-08-19T12:46:08;98955.16;;;24.46;48.71
9893;BME280;4985;49.092;8.542;2022-08-19T12:48:35;98954.94;;;24.48;48.74
9893;BME280;4985;49.092;8.542;2022-08-19T12:51:06;98953.03;;;24.48;48.71
9893;BME280;4985;49.092;8.542;2022-08-19T12:53:34;98948.47;;;24.49;48.68
9893;BME280;4985;49.092;8.542;2022-08-19T12:56:01;98949.00;;;24.51;48.02
9893;BME280;4985;49.092;8.542;2022-08-19T12:58:29;98952.50;;;24.51;47.17
9893;BME280;4985;49.092;8.542;2022-08-19T13:00:56;98940.13;;;24.50;47.33
9893;BME280;4985;49.092;8.542;2022-08-19T13:03:23;98939.88;;;24.52;46.89
9893;BME280;4985;49.092;8.542;2022-08-19T13:05:54;98939.88;;;24.52;46.44
9893;BME280;4985;49.092;8.542;2022-08-19T13:08:21;98949.28;;;24.54;46.86
9893;BME280;4985;49.092;8.542;2022-08-19T13:10:48;98949.28;;;24.54;46.90
9893;BME280;4985;49.092;8.542;2022-08-19T13:13:14;98943.63;;;24.56;47.30
9893;BME280;4985;49.092;8.542;2022-08-19T13:15:41;98948.53;;;24.59;47.26
9893;BME280;4985;49.092;8.542;2022-08-19T13:18:11;98950.94;;;24.60;47.28
9893;BME280;4985;49.092;8.542;2022-08-19T13:20:40;98954.44;;;24.61;47.11
9893;BME280;4985;49.092;8.542;2022-08-19T13:23:07;98952.56;;;24.61;46.88
9893;BME280;4985;49.092;8.542;2022-08-19T13:25:33;98957.13;;;24.61;46.77
9893;BME280;4985;49.092;8.542;2022-08-19T13:28:01;98959.56;;;24.62;46.81
9893;BME280;4985;49.092;8.542;2022-08-19T13:30:28;98964.94;;;24.62;46.88